createdAt,value
2016-08-31T00:00:18.654Z,18.6
2016-08-31T00:01:20.044Z,18.63
2016-08-31T00:02:19.316Z,18.56
2016-08-31T00:03:20.029Z,18.6
2016-08-31T00:04:20.006Z,18.52
2016-08-31T00:05:19.976Z,18.51
2016-08-31T00:06:19.974Z,18.63
2016-08-31T00:07:19.956Z,18.66
2016-08-31T00:08:19.933Z,18.65
2016-08-31T00:09:19.223Z,18.65
2016-08-31T00:10:18.513Z,18.65
2016-08-31T00:11:18.490Z,18.62
2016-08-31T00:12:19.897Z,18.51
2016-08-31T00:13:18.446Z,18.52
2016-08-31T00:14:19.222Z,18.51
2016-08-31T00:15:19.139Z,18.41
2016-08-31T00:16:19.128Z,18.42
2016-08-31T00:17:19.830Z,18.44
2016-08-31T00:18:19.809Z,18.5
2016-08-31T00:19:19.079Z,18.56
2016-08-31T00:20:19.076Z,18.5
2016-08-31T00:21:19.061Z,18.33
2016-08-31T00:22:19.059Z,18.35
2016-08-31T00:23:19.037Z,18.38
2016-08-31T00:24:19.018Z,18.47
2016-08-31T00:25:19.001Z,18.37
2016-08-31T00:26:19.704Z,18.38
2016-08-31T00:27:19.686Z,18.38
2016-08-31T00:28:19.669Z,18.38
2016-08-31T00:29:18.948Z,18.35
2016-08-31T00:30:19.653Z,18.41
2016-08-31T00:31:18.914Z,18.27
2016-08-31T00:32:19.629Z,18.38
2016-08-31T00:33:19.615Z,18.27
2016-08-31T00:34:19.588Z,18.26
2016-08-31T00:35:19.584Z,18.26
2016-08-31T00:36:19.565Z,18.19
2016-08-31T00:37:18.851Z,18.15
2016-08-31T00:38:19.549Z,18.19
2016-08-31T00:39:19.528Z,18.2
2016-08-31T00:40:19.514Z,18.14
2016-08-31T00:41:18.790Z,18.19
2016-08-31T00:42:19.489Z,18.22
2016-08-31T00:43:19.466Z,18.02
2016-08-31T00:44:19.461Z,17.98
2016-08-31T00:45:19.433Z,18
2016-08-31T00:46:18.713Z,17.98
2016-08-31T00:47:19.417Z,17.9
2016-08-31T00:48:19.410Z,17.95
2016-08-31T00:49:19.394Z,17.86
2016-08-31T00:50:18.668Z,17.93
2016-08-31T00:51:18.661Z,17.96
2016-08-31T00:52:18.691Z,17.96
2016-08-31T00:53:18.625Z,18.02
2016-08-31T00:54:19.326Z,17.98
2016-08-31T00:55:19.296Z,17.93
2016-08-31T00:56:18.582Z,18.01
2016-08-31T00:57:19.301Z,17.96
2016-08-31T00:58:19.267Z,17.98
2016-08-31T00:59:19.258Z,17.9
2016-08-31T01:00:18.589Z,17.86
2016-08-31T01:01:19.227Z,17.87
2016-08-31T01:02:19.222Z,17.92
2016-08-31T01:03:18.485Z,17.83
2016-08-31T01:04:19.245Z,17.85
2016-08-31T01:05:19.171Z,17.86
2016-08-31T01:06:18.502Z,17.83
2016-08-31T01:07:18.441Z,17.89
2016-08-31T01:08:18.418Z,17.82
2016-08-31T01:09:18.389Z,17.89
2016-08-31T01:10:19.104Z,17.75
2016-08-31T01:11:19.090Z,17.86
2016-08-31T01:12:19.150Z,17.82
2016-08-31T01:13:19.060Z,17.77
2016-08-31T01:14:18.432Z,17.75
2016-08-31T01:15:18.322Z,17.75
2016-08-31T01:16:19.026Z,17.82
2016-08-31T01:17:18.997Z,17.8
2016-08-31T01:18:19.011Z,17.75
2016-08-31T01:19:18.961Z,17.67
2016-08-31T01:20:18.245Z,17.67
2016-08-31T01:21:18.226Z,17.67
2016-08-31T01:22:18.938Z,17.6
2016-08-31T01:23:18.931Z,17.67
2016-08-31T01:24:18.901Z,17.67
2016-08-31T01:25:18.182Z,17.64
2016-08-31T01:26:18.911Z,17.54
2016-08-31T01:27:18.843Z,17.46
2016-08-31T01:28:18.861Z,17.55
2016-08-31T01:29:18.121Z,17.54
2016-08-31T01:30:18.097Z,17.42
2016-08-31T01:31:18.807Z,17.46
2016-08-31T01:32:18.800Z,17.46
2016-08-31T01:33:18.778Z,17.46
2016-08-31T01:34:18.771Z,17.49
2016-08-31T01:35:18.749Z,17.42
2016-08-31T01:36:18.014Z,17.45
2016-08-31T01:37:18.733Z,17.49
2016-08-31T01:38:18.762Z,17.45
2016-08-31T01:39:18.710Z,17.4
2016-08-31T01:40:18.903Z,17.46
2016-08-31T01:41:18.656Z,17.44
2016-08-31T01:42:18.645Z,17.33
2016-08-31T01:43:18.641Z,17.34
2016-08-31T01:44:18.622Z,17.27
2016-08-31T01:45:17.886Z,17.34
2016-08-31T01:46:17.951Z,17.31
2016-08-31T01:47:17.864Z,17.34
2016-08-31T01:48:18.561Z,17.33
2016-08-31T01:49:18.545Z,17.3
2016-08-31T01:50:18.561Z,17.36
2016-08-31T01:51:18.521Z,17.31
2016-08-31T01:52:17.800Z,17.21
2016-08-31T01:53:18.489Z,17.31
2016-08-31T01:54:17.766Z,17.26
2016-08-31T01:55:17.756Z,17.22
2016-08-31T01:56:18.462Z,17.21
2016-08-31T01:57:18.451Z,17.31
2016-08-31T01:58:17.704Z,17.24
2016-08-31T01:59:18.419Z,17.24
2016-08-31T02:00:18.499Z,17.19
2016-08-31T02:01:18.375Z,17.21
2016-08-31T02:02:17.661Z,17.19
2016-08-31T02:03:17.662Z,17.12
2016-08-31T02:04:18.386Z,17.19
2016-08-31T02:05:18.342Z,17.18
2016-08-31T02:06:18.328Z,17.21
2016-08-31T02:07:18.304Z,17.18
2016-08-31T02:08:18.284Z,17.09
2016-08-31T02:09:18.271Z,17.14
2016-08-31T02:10:18.254Z,17.15
2016-08-31T02:11:17.531Z,17.08
2016-08-31T02:12:18.221Z,17.11
2016-08-31T02:13:17.498Z,17.14
2016-08-31T02:14:17.478Z,17.15
2016-08-31T02:15:18.651Z,17.12
2016-08-31T02:16:17.448Z,17.11
2016-08-31T02:17:17.439Z,17.06
2016-08-31T02:18:18.135Z,17.06
2016-08-31T02:19:18.120Z,17.09
2016-08-31T02:20:18.106Z,17.09
2016-08-31T02:21:18.090Z,17.05
2016-08-31T02:22:18.080Z,17.01
2016-08-31T02:23:18.054Z,17.05
2016-08-31T02:24:18.048Z,17.06
2016-08-31T02:25:18.057Z,17.03
2016-08-31T02:26:18.039Z,17
2016-08-31T02:27:18.020Z,17.06
2016-08-31T02:28:17.989Z,17.11
2016-08-31T02:29:17.271Z,16.98
2016-08-31T02:30:17.974Z,16.96
2016-08-31T02:31:16.515Z,16.94
2016-08-31T02:32:17.943Z,16.9
2016-08-31T02:33:17.920Z,16.89
2016-08-31T02:34:17.910Z,16.82
2016-08-31T02:35:17.951Z,16.87
2016-08-31T02:36:17.878Z,16.87
2016-08-31T02:37:17.876Z,16.75
2016-08-31T02:38:17.844Z,16.79
2016-08-31T02:39:17.135Z,16.75
2016-08-31T02:40:17.816Z,16.81
2016-08-31T02:41:17.800Z,16.71
2016-08-31T02:42:17.789Z,16.69
2016-08-31T02:43:17.064Z,16.71
2016-08-31T02:44:17.754Z,16.69
2016-08-31T02:45:17.751Z,16.69
2016-08-31T02:46:17.725Z,16.71
2016-08-31T02:47:17.710Z,16.71
2016-08-31T02:48:17.005Z,16.72
2016-08-31T02:49:17.761Z,16.71
2016-08-31T02:50:17.679Z,16.75
2016-08-31T02:51:17.670Z,16.66
2016-08-31T02:52:17.648Z,16.64
2016-08-31T02:53:16.228Z,16.63
2016-08-31T02:54:17.609Z,16.64
2016-08-31T02:55:17.641Z,16.69
2016-08-31T02:56:17.585Z,16.61
2016-08-31T02:57:17.585Z,16.56
2016-08-31T02:58:17.554Z,16.6
2016-08-31T02:59:17.534Z,16.71
2016-08-31T03:00:17.531Z,16.58
2016-08-31T03:01:16.795Z,16.6
2016-08-31T03:02:17.500Z,16.58
2016-08-31T03:03:16.045Z,16.6
2016-08-31T03:04:17.461Z,16.58
2016-08-31T03:05:16.982Z,16.46
2016-08-31T03:06:17.440Z,16.48
2016-08-31T03:07:17.415Z,16.48
2016-08-31T03:08:17.411Z,16.43
2016-08-31T03:09:17.401Z,16.48
2016-08-31T03:10:17.381Z,16.42
2016-08-31T03:11:17.363Z,16.48
2016-08-31T03:12:17.341Z,16.45
2016-08-31T03:13:17.330Z,16.48
2016-08-31T03:14:17.320Z,16.42
2016-08-31T03:15:17.300Z,16.42
2016-08-31T03:16:16.591Z,16.39
2016-08-31T03:17:17.274Z,16.43
2016-08-31T03:18:17.259Z,16.39
2016-08-31T03:19:17.237Z,16.39
2016-08-31T03:20:16.511Z,16.32
2016-08-31T03:21:16.491Z,16.36
2016-08-31T03:22:17.201Z,16.41
2016-08-31T03:23:17.193Z,16.28
2016-08-31T03:24:17.170Z,16.27
2016-08-31T03:25:17.240Z,16.24
2016-08-31T03:26:17.139Z,16.31
2016-08-31T03:27:17.120Z,16.17
2016-08-31T03:28:17.097Z,16.26
2016-08-31T03:29:17.096Z,16.17
2016-08-31T03:30:17.087Z,16.15
2016-08-31T03:31:17.065Z,16.27
2016-08-31T03:32:17.057Z,16.23
2016-08-31T03:33:16.312Z,16.23
2016-08-31T03:34:17.027Z,16.13
2016-08-31T03:35:17.002Z,16.21
2016-08-31T03:36:17.001Z,16.16
2016-08-31T03:37:16.377Z,16.05
2016-08-31T03:38:16.952Z,16.15
2016-08-31T03:39:16.231Z,16.04
2016-08-31T03:40:16.921Z,16.17
2016-08-31T03:41:16.191Z,16.24
2016-08-31T03:42:16.901Z,16.16
2016-08-31T03:43:16.884Z,16.04
2016-08-31T03:44:16.857Z,16.04
2016-08-31T03:45:16.861Z,16.02
2016-08-31T03:46:16.846Z,16.01
2016-08-31T03:47:16.821Z,15.95
2016-08-31T03:48:16.815Z,15.94
2016-08-31T03:49:16.788Z,15.97
2016-08-31T03:50:16.782Z,15.95
2016-08-31T03:51:16.782Z,15.9
2016-08-31T03:52:16.751Z,15.92
2016-08-31T03:53:16.731Z,15.9
2016-08-31T03:54:16.710Z,15.92
2016-08-31T03:55:16.706Z,15.94
2016-08-31T03:56:16.677Z,15.87
2016-08-31T03:57:15.951Z,15.9
2016-08-31T03:58:16.666Z,16
2016-08-31T03:59:16.627Z,15.85
2016-08-31T04:00:16.618Z,15.77
2016-08-31T04:01:16.615Z,15.89
2016-08-31T04:02:15.887Z,15.89
2016-08-31T04:03:15.861Z,15.79
2016-08-31T04:04:15.851Z,15.77
2016-08-31T04:05:15.835Z,15.82
2016-08-31T04:06:16.531Z,15.77
2016-08-31T04:07:15.806Z,15.72
2016-08-31T04:08:16.497Z,15.8
2016-08-31T04:09:15.777Z,15.72
2016-08-31T04:10:16.705Z,15.72
2016-08-31T04:11:16.477Z,15.76
2016-08-31T04:12:16.436Z,15.67
2016-08-31T04:13:16.437Z,15.69
2016-08-31T04:14:16.404Z,15.68
2016-08-31T04:15:16.403Z,15.68
2016-08-31T04:16:16.387Z,15.67
2016-08-31T04:17:15.656Z,15.65
2016-08-31T04:18:16.395Z,15.64
2016-08-31T04:19:16.337Z,15.49
2016-08-31T04:20:15.620Z,15.6
2016-08-31T04:21:16.312Z,15.54
2016-08-31T04:22:16.300Z,15.67
2016-08-31T04:23:16.277Z,15.62
2016-08-31T04:24:16.316Z,15.62
2016-08-31T04:25:14.829Z,15.62
2016-08-31T04:26:16.230Z,15.72
2016-08-31T04:27:14.777Z,15.67
2016-08-31T04:28:15.535Z,15.79
2016-08-31T04:29:14.757Z,15.75
2016-08-31T04:30:16.214Z,15.79
2016-08-31T04:31:15.447Z,15.8
2016-08-31T04:32:15.429Z,15.75
2016-08-31T04:33:16.113Z,15.75
2016-08-31T04:34:16.132Z,15.67
2016-08-31T04:35:15.368Z,15.64
2016-08-31T04:36:15.372Z,15.61
2016-08-31T04:37:16.054Z,15.62
2016-08-31T04:38:16.058Z,15.58
2016-08-31T04:39:15.305Z,15.58
2016-08-31T04:40:16.054Z,15.49
2016-08-31T04:41:15.282Z,15.57
2016-08-31T04:42:16.026Z,15.57
2016-08-31T04:43:15.962Z,15.52
2016-08-31T04:44:15.983Z,15.53
2016-08-31T04:45:15.235Z,15.46
2016-08-31T04:46:15.932Z,15.53
2016-08-31T04:47:15.188Z,15.52
2016-08-31T04:48:15.886Z,15.53
2016-08-31T04:49:15.882Z,15.5
2016-08-31T04:50:15.870Z,15.52
2016-08-31T04:51:15.126Z,15.53
2016-08-31T04:52:15.111Z,15.47
2016-08-31T04:53:15.821Z,15.5
2016-08-31T04:54:15.793Z,15.54
2016-08-31T04:55:15.789Z,15.5
2016-08-31T04:56:15.048Z,15.57
2016-08-31T04:57:15.740Z,15.42
2016-08-31T04:58:15.028Z,15.37
2016-08-31T04:59:15.725Z,15.43
2016-08-31T05:00:15.011Z,15.42
2016-08-31T05:01:15.678Z,15.5
2016-08-31T05:02:14.957Z,15.46
2016-08-31T05:03:15.662Z,15.42
2016-08-31T05:04:15.649Z,15.42
2016-08-31T05:05:15.631Z,15.31
2016-08-31T05:06:14.891Z,15.22
2016-08-31T05:07:14.872Z,15.24
2016-08-31T05:08:15.583Z,15.24
2016-08-31T05:09:14.846Z,15.22
2016-08-31T05:10:14.831Z,15.39
2016-08-31T05:11:14.806Z,15.4
2016-08-31T05:12:15.522Z,15.44
2016-08-31T05:13:14.792Z,15.44
2016-08-31T05:14:15.484Z,15.34
2016-08-31T05:15:15.465Z,15.29
2016-08-31T05:16:15.452Z,15.42
2016-08-31T05:17:14.719Z,15.42
2016-08-31T05:18:15.427Z,15.46
2016-08-31T05:19:15.407Z,15.47
2016-08-31T05:20:14.723Z,15.52
2016-08-31T05:21:15.378Z,15.53
2016-08-31T05:22:15.370Z,15.47
2016-08-31T05:23:15.353Z,15.37
2016-08-31T05:24:14.621Z,15.34
2016-08-31T05:25:15.308Z,15.32
2016-08-31T05:26:15.295Z,15.29
2016-08-31T05:27:14.562Z,15.37
2016-08-31T05:28:15.356Z,15.39
2016-08-31T05:29:15.255Z,15.29
2016-08-31T05:30:15.229Z,15.34
2016-08-31T05:31:15.246Z,15.24
2016-08-31T05:32:15.296Z,15.17
2016-08-31T05:33:14.479Z,15.06
2016-08-31T05:34:15.164Z,14.85
2016-08-31T05:35:15.168Z,14.92
2016-08-31T05:36:15.164Z,15.02
2016-08-31T05:37:14.406Z,14.92
2016-08-31T05:38:15.104Z,15.17
2016-08-31T05:39:14.376Z,15.14
2016-08-31T05:40:15.077Z,15.2
2016-08-31T05:41:15.063Z,15.31
2016-08-31T05:42:14.325Z,15.22
2016-08-31T05:43:14.320Z,15.29
2016-08-31T05:44:15.032Z,15.42
2016-08-31T05:45:15.010Z,15.53
2016-08-31T05:46:15.027Z,15.44
2016-08-31T05:47:14.977Z,15.61
2016-08-31T05:48:14.954Z,15.46
2016-08-31T05:49:14.939Z,15.6
2016-08-31T05:50:14.207Z,15.53
2016-08-31T05:51:14.905Z,15.6
2016-08-31T05:52:14.180Z,15.62
2016-08-31T05:53:14.869Z,15.62
2016-08-31T05:54:14.148Z,15.68
2016-08-31T05:55:14.860Z,15.71
2016-08-31T05:56:14.868Z,15.82
2016-08-31T05:57:14.813Z,15.77
2016-08-31T05:58:14.799Z,15.87
2016-08-31T05:59:14.161Z,15.92
2016-08-31T06:00:14.766Z,15.8
2016-08-31T06:01:14.749Z,15.86
2016-08-31T06:02:14.761Z,15.9
2016-08-31T06:03:14.717Z,15.61
2016-08-31T06:04:13.995Z,15.58
2016-08-31T06:05:13.975Z,15.57
2016-08-31T06:06:13.963Z,15.54
2016-08-31T06:07:13.950Z,15.6
2016-08-31T06:08:14.644Z,15.65
2016-08-31T06:09:14.640Z,15.77
2016-08-31T06:10:14.661Z,15.62
2016-08-31T06:11:13.170Z,15.64
2016-08-31T06:12:14.574Z,15.61
2016-08-31T06:13:14.575Z,15.58
2016-08-31T06:14:14.545Z,15.68
2016-08-31T06:15:14.546Z,15.69
2016-08-31T06:16:13.087Z,16
2016-08-31T06:17:14.503Z,16.05
2016-08-31T06:18:13.791Z,16.31
2016-08-31T06:19:14.475Z,16.13
2016-08-31T06:20:14.467Z,16.12
2016-08-31T06:21:13.738Z,16.21
2016-08-31T06:22:14.428Z,16.34
2016-08-31T06:23:13.707Z,16.36
2016-08-31T06:24:14.399Z,16.46
2016-08-31T06:25:14.382Z,16.56
2016-08-31T06:26:14.370Z,16.36
2016-08-31T06:27:14.357Z,16.53
2016-08-31T06:28:14.350Z,16.45
2016-08-31T06:29:12.935Z,16.35
2016-08-31T06:30:14.327Z,16.36
2016-08-31T06:31:14.365Z,16.35
2016-08-31T06:32:14.283Z,16.46
2016-08-31T06:33:13.561Z,16.64
2016-08-31T06:34:13.534Z,16.34
2016-08-31T06:35:14.408Z,16.15
2016-08-31T06:36:14.238Z,16.21
2016-08-31T06:37:14.277Z,16.17
2016-08-31T06:38:14.193Z,16.17
2016-08-31T06:39:14.241Z,16.51
2016-08-31T06:40:14.163Z,16.63
2016-08-31T06:41:14.145Z,16.58
2016-08-31T06:42:14.122Z,16.36
2016-08-31T06:43:12.728Z,16.43
2016-08-31T06:44:14.100Z,16.35
2016-08-31T06:45:14.137Z,16.43
2016-08-31T06:46:14.061Z,16.32
2016-08-31T06:47:14.085Z,16.32
2016-08-31T06:48:14.048Z,16.48
2016-08-31T06:49:14.033Z,16.58
2016-08-31T06:50:13.328Z,16.75
2016-08-31T06:51:14.023Z,16.74
2016-08-31T06:52:13.263Z,16.72
2016-08-31T06:53:14.185Z,16.94
2016-08-31T06:54:13.947Z,17.03
2016-08-31T06:55:13.933Z,17.48
2016-08-31T06:56:13.917Z,18.48
2016-08-31T06:57:13.904Z,20.92
2016-08-31T06:58:13.897Z,23.82
2016-08-31T06:59:13.176Z,25.1
2016-08-31T07:00:14.080Z,25.81
2016-08-31T07:01:13.152Z,27.12
2016-08-31T07:02:13.855Z,27.25
2016-08-31T07:03:13.900Z,27.74
2016-08-31T07:04:13.844Z,28.79
2016-08-31T07:05:13.925Z,28.55
2016-08-31T07:06:13.116Z,28.7
2016-08-31T07:07:13.814Z,29.3
2016-08-31T07:08:13.097Z,29.37
2016-08-31T07:09:13.799Z,29.39
2016-08-31T07:10:13.791Z,29.92
2016-08-31T07:11:13.788Z,30.11
2016-08-31T07:12:13.079Z,30.36
2016-08-31T07:13:13.789Z,28.93
2016-08-31T07:14:13.057Z,29.54
2016-08-31T07:15:13.785Z,29.96
2016-08-31T07:16:13.107Z,28.97
2016-08-31T07:17:13.748Z,27.36
2016-08-31T07:18:13.048Z,26.79
2016-08-31T07:19:12.308Z,26.91
2016-08-31T07:20:13.204Z,27.57
2016-08-31T07:21:13.008Z,26.91
2016-08-31T07:22:13.716Z,27.37
2016-08-31T07:23:12.998Z,27.76
2016-08-31T07:24:12.988Z,27.5
2016-08-31T07:25:13.690Z,27.55
2016-08-31T07:26:12.997Z,27.74
2016-08-31T07:27:12.968Z,27.23
2016-08-31T07:28:12.984Z,26.54
2016-08-31T07:29:13.687Z,25.85
2016-08-31T07:30:12.944Z,25.74
2016-08-31T07:31:13.653Z,25.82
2016-08-31T07:32:13.677Z,25.81
2016-08-31T07:33:13.668Z,25.77
2016-08-31T07:34:12.935Z,25.25
2016-08-31T07:35:14.322Z,24.9
2016-08-31T07:36:13.636Z,24.57
2016-08-31T07:37:12.904Z,24.82
2016-08-31T07:38:13.003Z,24.95
2016-08-31T07:39:13.608Z,24.82
2016-08-31T07:40:13.613Z,24.81
2016-08-31T07:41:13.616Z,24.93
2016-08-31T07:42:12.884Z,24.82
2016-08-31T07:43:13.593Z,24.58
2016-08-31T07:44:13.595Z,24.78
2016-08-31T07:45:13.638Z,24.62
2016-08-31T07:46:13.595Z,24.15
2016-08-31T07:47:12.864Z,24.55
2016-08-31T07:48:12.861Z,24.81
2016-08-31T07:49:13.578Z,25.32
2016-08-31T07:50:12.135Z,25.82
2016-08-31T07:51:12.868Z,26.48
2016-08-31T07:52:13.574Z,26.41
2016-08-31T07:53:12.877Z,27.18
2016-08-31T07:54:12.858Z,26.84
2016-08-31T07:55:12.850Z,26.66
2016-08-31T07:56:13.560Z,27.43
2016-08-31T07:57:13.563Z,28.18
2016-08-31T07:58:13.561Z,28.76
2016-08-31T07:59:13.567Z,29.06
2016-08-31T08:00:13.562Z,27.86
2016-08-31T08:01:12.850Z,27.28
2016-08-31T08:02:12.851Z,28.15
2016-08-31T08:03:12.129Z,29.02
2016-08-31T08:04:12.230Z,29.84
2016-08-31T08:05:14.293Z,30.18
2016-08-31T08:06:12.226Z,30.18
2016-08-31T08:07:14.910Z,29.99
2016-08-31T08:08:12.149Z,30.08
2016-08-31T08:09:13.580Z,30.31
2016-08-31T08:10:13.585Z,30.77
2016-08-31T08:11:12.864Z,31.08
2016-08-31T08:12:13.577Z,30.92
2016-08-31T08:13:12.855Z,30.95
2016-08-31T08:14:13.575Z,30.83
2016-08-31T08:15:12.858Z,30.51
2016-08-31T08:16:13.579Z,29.44
2016-08-31T08:17:12.854Z,29.18
2016-08-31T08:18:12.868Z,29.47
2016-08-31T08:19:13.587Z,30.36
2016-08-31T08:20:13.626Z,29.92
2016-08-31T08:21:13.590Z,29.14
2016-08-31T08:22:12.153Z,30.01
2016-08-31T08:23:12.161Z,30.08
2016-08-31T08:24:12.884Z,30.2
2016-08-31T08:25:12.867Z,28.93
2016-08-31T08:26:13.671Z,29.27
2016-08-31T08:27:12.879Z,30.13
2016-08-31T08:28:12.888Z,29
2016-08-31T08:29:12.886Z,28.28
2016-08-31T08:30:13.602Z,27.88
2016-08-31T08:31:13.602Z,27.75
2016-08-31T08:32:12.179Z,28.24
2016-08-31T08:33:13.593Z,28.89
2016-08-31T08:34:13.641Z,29.39
2016-08-31T08:35:13.779Z,29.27
2016-08-31T08:36:13.630Z,28.27
2016-08-31T08:37:12.892Z,28.86
2016-08-31T08:38:13.616Z,29.86
2016-08-31T08:39:13.641Z,30.36
2016-08-31T08:40:13.592Z,30.85
2016-08-31T08:41:12.911Z,30.26
2016-08-31T08:42:13.617Z,30.78
2016-08-31T08:43:13.631Z,30.17
2016-08-31T08:44:12.921Z,30.38
2016-08-31T08:45:12.204Z,29.84
2016-08-31T08:46:13.659Z,29.54
2016-08-31T08:47:12.930Z,27.55
2016-08-31T08:48:12.934Z,27.82
2016-08-31T08:49:12.992Z,28.79
2016-08-31T08:50:13.652Z,29.25
2016-08-31T08:51:13.712Z,28.3
2016-08-31T08:52:13.648Z,28.64
2016-08-31T08:53:13.660Z,29.62
2016-08-31T08:54:12.930Z,30.18
2016-08-31T08:55:13.685Z,29.62
2016-08-31T08:56:12.950Z,29.28
2016-08-31T08:57:13.654Z,29
2016-08-31T08:58:13.656Z,29.62
2016-08-31T08:59:12.931Z,28.98
2016-08-31T09:00:15.040Z,28.28
2016-08-31T09:01:12.957Z,27.74
2016-08-31T09:02:13.675Z,27.6
2016-08-31T09:03:13.668Z,27.55
2016-08-31T09:04:13.011Z,27.88
2016-08-31T09:05:13.687Z,29
2016-08-31T09:06:12.964Z,30.01
2016-08-31T09:07:12.981Z,30.85
2016-08-31T09:08:13.675Z,29.22
2016-08-31T09:09:13.677Z,29.17
2016-08-31T09:10:13.047Z,29.95
2016-08-31T09:11:12.263Z,30.26
2016-08-31T09:12:13.760Z,30.82
2016-08-31T09:13:13.696Z,31.11
2016-08-31T09:14:13.732Z,31.52
2016-08-31T09:15:13.706Z,31.89
2016-08-31T09:16:13.708Z,30.95
2016-08-31T09:17:13.704Z,31.26
2016-08-31T09:18:13.770Z,31.6
2016-08-31T09:19:12.265Z,31.74
2016-08-31T09:20:12.288Z,31.67
2016-08-31T09:21:12.997Z,32.13
2016-08-31T09:22:13.756Z,32.24
2016-08-31T09:23:13.016Z,31.89
2016-08-31T09:24:13.726Z,31.52
2016-08-31T09:25:13.010Z,31.62
2016-08-31T09:26:13.730Z,31.86
2016-08-31T09:27:13.739Z,32.02
2016-08-31T09:28:13.735Z,32.19
2016-08-31T09:29:13.024Z,31.23
2016-08-31T09:30:13.744Z,30.02
2016-08-31T09:31:13.082Z,29.07
2016-08-31T09:32:13.052Z,28.65
2016-08-31T09:33:13.033Z,29.2
2016-08-31T09:34:13.039Z,29.86
2016-08-31T09:35:13.754Z,29.54
2016-08-31T09:36:13.046Z,30.14
2016-08-31T09:37:13.047Z,30.86
2016-08-31T09:38:13.784Z,31.51
2016-08-31T09:39:13.765Z,31.74
2016-08-31T09:40:13.771Z,31.95
2016-08-31T09:41:13.778Z,32.31
2016-08-31T09:42:13.775Z,32.48
2016-08-31T09:43:13.099Z,32.88
2016-08-31T09:44:13.771Z,32.58
2016-08-31T09:45:13.770Z,33.09
2016-08-31T09:46:13.779Z,33.17
2016-08-31T09:47:13.063Z,33.36
2016-08-31T09:48:13.065Z,33.67
2016-08-31T09:49:13.783Z,33.66
2016-08-31T09:50:13.099Z,32.31
2016-08-31T09:51:12.356Z,31.76
2016-08-31T09:52:13.787Z,32.2
2016-08-31T09:53:13.796Z,31.99
2016-08-31T09:54:13.076Z,32.45
2016-08-31T09:55:13.109Z,32.64
2016-08-31T09:56:13.815Z,32.42
2016-08-31T09:57:13.090Z,32.01
2016-08-31T09:58:13.106Z,31.94
2016-08-31T09:59:13.099Z,32.29
2016-08-31T10:00:13.252Z,32.34
2016-08-31T10:01:13.100Z,32.7
2016-08-31T10:02:13.087Z,32.92
2016-08-31T10:03:13.097Z,33.26
2016-08-31T10:04:12.388Z,33.13
2016-08-31T10:05:13.828Z,33.36
2016-08-31T10:06:13.106Z,33.51
2016-08-31T10:07:13.103Z,33.62
2016-08-31T10:08:13.811Z,32.98
2016-08-31T10:09:13.138Z,33.14
2016-08-31T10:10:13.096Z,33.14
2016-08-31T10:11:13.104Z,32.02
2016-08-31T10:12:13.093Z,31.49
2016-08-31T10:13:13.938Z,31.26
2016-08-31T10:14:12.389Z,31.08
2016-08-31T10:15:13.825Z,31.48
2016-08-31T10:16:13.817Z,31.51
2016-08-31T10:17:13.093Z,31.2
2016-08-31T10:18:13.096Z,31.64
2016-08-31T10:19:13.835Z,32.05
2016-08-31T10:20:13.076Z,32.17
2016-08-31T10:21:13.820Z,32.01
2016-08-31T10:22:13.812Z,32.31
2016-08-31T10:23:13.818Z,32.5
2016-08-31T10:24:13.085Z,32.91
2016-08-31T10:25:13.086Z,33.13
2016-08-31T10:26:12.359Z,33.06
2016-08-31T10:27:13.810Z,33.1
2016-08-31T10:28:13.090Z,33.33
2016-08-31T10:29:13.787Z,33.36
2016-08-31T10:30:13.769Z,33.37
2016-08-31T10:31:13.774Z,33.47
2016-08-31T10:32:13.087Z,33.69
2016-08-31T10:33:13.069Z,33.78
2016-08-31T10:34:13.067Z,33.76
2016-08-31T10:35:13.121Z,33.79
2016-08-31T10:36:12.402Z,33.62
2016-08-31T10:37:13.066Z,33.82
2016-08-31T10:38:13.754Z,33.45
2016-08-31T10:39:13.758Z,32.7
2016-08-31T10:40:13.048Z,32.53
2016-08-31T10:41:13.155Z,32.66
2016-08-31T10:42:13.037Z,32.88
2016-08-31T10:43:13.755Z,33.12
2016-08-31T10:44:13.745Z,33.35
2016-08-31T10:45:13.256Z,33.54
2016-08-31T10:46:13.746Z,33.05
2016-08-31T10:47:13.039Z,33.05
2016-08-31T10:48:13.728Z,32.61
2016-08-31T10:49:12.304Z,32.58
2016-08-31T10:50:13.278Z,33.05
2016-08-31T10:51:13.090Z,33.28
2016-08-31T10:52:13.753Z,32.8
2016-08-31T10:53:13.729Z,31.49
2016-08-31T10:54:13.726Z,31.29
2016-08-31T10:55:13.768Z,30.2
2016-08-31T10:56:13.719Z,30.77
2016-08-31T10:57:13.726Z,30.78
2016-08-31T10:58:12.998Z,30.07
2016-08-31T10:59:13.690Z,30.74
2016-08-31T11:00:12.975Z,31.7
2016-08-31T11:01:13.686Z,32.34
2016-08-31T11:02:13.684Z,32.8
2016-08-31T11:03:13.687Z,33.29
2016-08-31T11:04:12.969Z,33.22
2016-08-31T11:05:13.670Z,32.97
2016-08-31T11:06:13.746Z,33.26
2016-08-31T11:07:12.946Z,32.13
2016-08-31T11:08:13.663Z,31.87
2016-08-31T11:09:13.656Z,32.24
2016-08-31T11:10:13.669Z,32.45
2016-08-31T11:11:13.644Z,32.92
2016-08-31T11:12:13.677Z,33.01
2016-08-31T11:13:13.639Z,33.14
2016-08-31T11:14:13.644Z,33.37
2016-08-31T11:15:13.799Z,33.76
2016-08-31T11:16:12.923Z,33.99
2016-08-31T11:17:13.646Z,33.78
2016-08-31T11:18:13.624Z,34.01
2016-08-31T11:19:13.640Z,34.21
2016-08-31T11:20:14.190Z,32.92
2016-08-31T11:21:12.886Z,31.6
2016-08-31T11:22:13.607Z,31.01
2016-08-31T11:23:12.886Z,31.69
2016-08-31T11:24:13.615Z,32.13
2016-08-31T11:25:14.440Z,32.7
2016-08-31T11:26:12.887Z,33.03
2016-08-31T11:27:13.614Z,33.33
2016-08-31T11:28:13.577Z,33.57
2016-08-31T11:29:13.586Z,33.13
2016-08-31T11:30:12.879Z,33.26
2016-08-31T11:31:12.851Z,33.41
2016-08-31T11:32:13.578Z,33.28
2016-08-31T11:33:13.579Z,33.1
2016-08-31T11:34:12.843Z,32.85
2016-08-31T11:35:12.135Z,32.53
2016-08-31T11:36:13.549Z,32.9
2016-08-31T11:37:12.838Z,33.51
2016-08-31T11:38:13.557Z,33.28
2016-08-31T11:39:12.840Z,32.88
2016-08-31T11:40:12.830Z,32.97
2016-08-31T11:41:13.545Z,33.33
2016-08-31T11:42:13.538Z,33.69
2016-08-31T11:43:13.540Z,33.92
2016-08-31T11:44:12.819Z,34.13
2016-08-31T11:45:12.811Z,33.97
2016-08-31T11:46:13.519Z,33.84
2016-08-31T11:47:13.540Z,33.88
2016-08-31T11:48:12.856Z,33.79
2016-08-31T11:49:12.805Z,33.62
2016-08-31T11:50:13.516Z,33.78
2016-08-31T11:51:13.547Z,34.04
2016-08-31T11:52:12.069Z,34.34
2016-08-31T11:53:13.496Z,34.33
2016-08-31T11:54:12.781Z,33.89
2016-08-31T11:55:13.631Z,32.76
2016-08-31T11:56:13.525Z,31.71
2016-08-31T11:57:12.777Z,32.12
2016-08-31T11:58:13.483Z,32.64
2016-08-31T11:59:12.759Z,33.22
2016-08-31T12:00:13.486Z,33.57
2016-08-31T12:01:13.477Z,33.82
2016-08-31T12:02:13.518Z,32.97
2016-08-31T12:03:12.757Z,33.54
2016-08-31T12:04:12.027Z,33.64
2016-08-31T12:05:13.464Z,33.84
2016-08-31T12:06:12.791Z,33.13
2016-08-31T12:07:12.017Z,33.03
2016-08-31T12:08:12.015Z,33.5
2016-08-31T12:09:12.727Z,33.89
2016-08-31T12:10:12.718Z,34.26
2016-08-31T12:11:13.448Z,34.34
2016-08-31T12:12:13.430Z,34.19
2016-08-31T12:13:12.720Z,34.16
2016-08-31T12:14:13.426Z,34.3
2016-08-31T12:15:12.320Z,33.91
2016-08-31T12:16:12.692Z,33.78
2016-08-31T12:17:13.416Z,34.18
2016-08-31T12:18:12.716Z,33.91
2016-08-31T12:19:12.689Z,33.28
2016-08-31T12:20:13.410Z,33.12
2016-08-31T12:21:11.960Z,33.36
2016-08-31T12:22:13.394Z,33.64
2016-08-31T12:23:13.410Z,33.64
2016-08-31T12:24:13.384Z,32.87
2016-08-31T12:25:13.437Z,32.02
2016-08-31T12:26:11.940Z,31.27
2016-08-31T12:27:12.665Z,30.52
2016-08-31T12:28:12.650Z,30.48
2016-08-31T12:29:12.769Z,30.96
2016-08-31T12:30:13.367Z,31.87
2016-08-31T12:31:13.378Z,32.35
2016-08-31T12:32:13.363Z,32.92
2016-08-31T12:33:13.359Z,33.44
2016-08-31T12:34:12.621Z,33.29
2016-08-31T12:35:16.068Z,33.66
2016-08-31T12:36:12.630Z,33.63
2016-08-31T12:37:12.621Z,32.91
2016-08-31T12:38:13.562Z,33.26
2016-08-31T12:39:13.378Z,33.64
2016-08-31T12:40:13.407Z,33.97
2016-08-31T12:41:12.616Z,34.16
2016-08-31T12:42:13.316Z,34.23
2016-08-31T12:43:12.590Z,33.94
2016-08-31T12:44:11.867Z,34.1
2016-08-31T12:45:12.582Z,34.19
2016-08-31T12:46:12.590Z,34.63
2016-08-31T12:47:12.587Z,34.53
2016-08-31T12:48:13.296Z,33.88
2016-08-31T12:49:13.301Z,33.26
2016-08-31T12:50:12.626Z,32.27
2016-08-31T12:51:12.559Z,32.48
2016-08-31T12:52:13.277Z,33.05
2016-08-31T12:53:11.844Z,33.63
2016-08-31T12:54:11.837Z,34.1
2016-08-31T12:55:43.906Z,34.29